sensor_id;sensor_type;location;lat;lon;timestamp;pressure;altitude;pressure_sealevel;temperature;humidity
41515;BME280;27247;48.020;16.720;2023-07-22T00:00:53;99473.44;;;18.45;94.75
41515;BME280;27247;48.020;16.720;2023-07-22T00:05:03;99479.56;;;18.52;92.65
41515;BME280;27247;48.020;16.720;2023-07-22T00:09:14;99477.91;;;18.51;91.03
41515;BME280;27247;48.020;16.720;2023-07-22T00:13:24;99480.38;;;18.52;91.21
41515;BME280;27247;48.020;16.720;2023-07-22T00:17:36;99493.56;;;18.49;91.08
41515;BME280;27247;48.020;16.720;2023-07-22T00:21:47;99488.38;;;18.36;91.32
41515;BME280;27247;48.020;16.720;2023-07-22T00:25:57;99501.31;;;18.34;91.31
41515;BME280;27247;48.020;16.720;2023-07-22T00:30:08;99494.97;;;18.28;90.33
41515;BME280;27247;48.020;16.720;2023-07-22T00:34:19;99503.66;;;18.18;90.69
41515;BME280;27247;48.020;16.720;2023-07-22T00:38:29;99512.59;;;18.31;90.71
41515;BME280;27247;48.020;16.720;2023-07-22T00:42:40;99504.34;;;18.14;91.05
41515;BME280;27247;48.020;16.720;2023-07-22T00:46:54;99503.44;;;18.32;90.06
41515;BME280;27247;48.020;16.720;2023-07-22T00:51:05;99514.03;;;18.45;89.06
41515;BME280;27247;48.020;16.720;2023-07-22T00:55:15;99508.53;;;18.63;87.09
41515;BME280;27247;48.020;16.720;2023-07-22T00:59:26;99526.09;;;18.84;85.60
41515;BME280;27247;48.020;16.720;2023-07-22T01:03:37;99553.50;;;18.99;85.01
41515;BME280;27247;48.020;16.720;2023-07-22T01:07:47;99554.53;;;19.10;83.96
41515;BME280;27247;48.020;16.720;2023-07-22T01:11:57;99566.31;;;19.16;83.32
41515;BME280;27247;48.020;16.720;2023-07-22T01:16:08;99569.25;;;19.14;83.25
41515;BME280;27247;48.020;16.720;2023-07-22T01:20:19;99578.09;;;19.09;83.07
41515;BME280;27247;48.020;16.720;2023-07-22T01:24:29;99581.50;;;19.17;82.41
41515;BME280;27247;48.020;16.720;2023-07-22T01:28:40;99603.06;;;19.11;83.21
41515;BME280;27247;48.020;16.720;2023-07-22T01:32:50;99605.91;;;19.05;83.68
41515;BME280;27247;48.020;16.720;2023-07-22T01:37:01;99617.78;;;19.04;83.79
41515;BME280;27247;48.020;16.720;2023-07-22T01:41:11;99622.84;;;19.00;83.84
41515;BME280;27247;48.020;16.720;2023-07-22T01:45:21;99626.38;;;19.01;83.63
41515;BME280;27247;48.020;16.720;2023-07-22T01:49:32;99643.69;;;19.00;84.09
41515;BME280;27247;48.020;16.720;2023-07-22T01:53:44;99644.16;;;18.97;83.95
41515;BME280;27247;48.020;16.720;2023-07-22T01:57:55;99640.88;;;18.95;83.70
41515;BME280;27247;48.020;16.720;2023-07-22T02:02:05;99653.34;;;18.96;82.76
41515;BME280;27247;48.020;16.720;2023-07-22T02:06:15;99638.97;;;18.95;81.58
41515;BME280;27247;48.020;16.720;2023-07-22T02:10:26;99647.47;;;18.99;81.22
41515;BME280;27247;48.020;16.720;2023-07-22T02:14:37;99652.53;;;18.95;81.05
41515;BME280;27247;48.020;16.720;2023-07-22T02:18:47;99655.81;;;18.86;79.55
41515;BME280;27247;48.020;16.720;2023-07-22T02:22:57;99653.81;;;18.93;78.95
41515;BME280;27247;48.020;16.720;2023-07-22T02:27:07;99654.75;;;18.87;78.56
41515;BME280;27247;48.020;16.720;2023-07-22T02:31:18;99656.66;;;18.98;77.80
41515;BME280;27247;48.020;16.720;2023-07-22T02:35:29;99665.38;;;19.00;77.31
41515;BME280;27247;48.020;16.720;2023-07-22T02:39:39;99667.25;;;18.99;76.62
41515;BME280;27247;48.020;16.720;2023-07-22T02:43:49;99674.06;;;19.02;76.82
41515;BME280;27247;48.020;16.720;2023-07-22T02:48:00;99675.38;;;18.99;76.32
41515;BME280;27247;48.020;16.720;2023-07-22T02:52:10;99673.38;;;18.95;76.21
41515;BME280;27247;48.020;16.720;2023-07-22T02:56:21;99682.09;;;18.97;76.81
41515;BME280;27247;48.020;16.720;2023-07-22T03:00:31;99685.16;;;19.00;76.97
41515;BME280;27247;48.020;16.720;2023-07-22T03:04:41;99694.22;;;18.94;77.09
41515;BME280;27247;48.020;16.720;2023-07-22T03:08:52;99696.69;;;18.96;77.71
41515;BME280;27247;48.020;16.720;2023-07-22T03:13:03;99701.97;;;18.91;78.14
41515;BME280;27247;48.020;16.720;2023-07-22T03:17:13;99706.09;;;18.93;78.96
41515;BME280;27247;48.020;16.720;2023-07-22T03:21:26;99699.84;;;18.93;80.02
41515;BME280;27247;48.020;16.720;2023-07-22T03:25:37;99712.56;;;18.92;80.69
41515;BME280;27247;48.020;16.720;2023-07-22T03:29:47;99717.16;;;18.92;80.91
41515;BME280;27247;48.020;16.720;2023-07-22T03:33:57;99704.56;;;18.86;81.15
41515;BME280;27247;48.020;16.720;2023-07-22T03:38:08;99707.13;;;18.80;81.32
41515;BME280;27247;48.020;16.720;2023-07-22T03:42:18;99714.22;;;18.93;81.55
41515;BME280;27247;48.020;16.720;2023-07-22T03:46:28;99710.81;;;18.98;81.58
41515;BME280;27247;48.020;16.720;2023-07-22T03:50:39;99706.09;;;18.93;81.83
41515;BME280;27247;48.020;16.720;2023-07-22T03:54:49;99707.28;;;18.97;82.04
41515;BME280;27247;48.020;16.720;2023-07-22T03:58:59;99703.63;;;18.92;82.61
41515;BME280;27247;48.020;16.720;2023-07-22T04:03:10;99717.63;;;18.89;83.42
41515;BME280;27247;48.020;16.720;2023-07-22T04:07:21;99718.44;;;18.89;84.05
41515;BME280;27247;48.020;16.720;2023-07-22T04:11:31;99710.06;;;18.79;84.80
41515;BME280;27247;48.020;16.720;2023-07-22T04:15:41;99716.91;;;18.81;85.36
41515;BME280;27247;48.020;16.720;2023-07-22T04:19:52;99720.34;;;18.89;85.50
41515;BME280;27247;48.020;16.720;2023-07-22T04:24:02;99719.03;;;18.91;86.18
41515;BME280;27247;48.020;16.720;2023-07-22T04:28:14;99716.13;;;19.04;85.57
41515;BME280;27247;48.020;16.720;2023-07-22T04:32:24;99730.03;;;19.08;85.31
41515;BME280;27247;48.020;16.720;2023-07-22T04:36:34;99731.56;;;19.16;84.37
41515;BME280;27247;48.020;16.720;2023-07-22T04:40:47;99743.69;;;19.25;83.67
41515;BME280;27247;48.020;16.720;2023-07-22T04:44:57;99742.66;;;19.26;83.02
41515;BME280;27247;48.020;16.720;2023-07-22T04:49:07;99745.13;;;19.27;82.38
41515;BME280;27247;48.020;16.720;2023-07-22T04:53:18;99747.59;;;19.29;82.18
41515;BME280;27247;48.020;16.720;2023-07-22T04:57:29;99754.78;;;19.35;82.02
41515;BME280;27247;48.020;16.720;2023-07-22T05:01:39;99757.03;;;19.38;82.13
41515;BME280;27247;48.020;16.720;2023-07-22T05:05:49;99759.31;;;19.53;81.54
41515;BME280;27247;48.020;16.720;2023-07-22T05:10:00;99764.25;;;19.67;81.78
41515;BME280;27247;48.020;16.720;2023-07-22T05:14:10;99767.78;;;19.68;79.57
41515;BME280;27247;48.020;16.720;2023-07-22T05:18:20;99764.94;;;19.74;78.25
41515;BME280;27247;48.020;16.720;2023-07-22T05:22:31;99763.06;;;19.87;78.21
41515;BME280;27247;48.020;16.720;2023-07-22T05:26:41;99771.09;;;19.93;78.42
41515;BME280;27247;48.020;16.720;2023-07-22T05:30:51;99766.13;;;20.02;77.95
41515;BME280;27247;48.020;16.720;2023-07-22T05:35:02;99766.13;;;20.02;77.02
41515;BME280;27247;48.020;16.720;2023-07-22T05:39:15;99765.25;;;20.13;77.48
41515;BME280;27247;48.020;16.720;2023-07-22T05:43:27;99774.09;;;20.20;77.16
41515;BME280;27247;48.020;16.720;2023-07-22T05:47:38;99770.91;;;20.23;76.99
41515;BME280;27247;48.020;16.720;2023-07-22T05:51:48;99783.84;;;20.33;77.17
41515;BME280;27247;48.020;16.720;2023-07-22T05:55:58;99786.22;;;20.29;76.02
41515;BME280;27247;48.020;16.720;2023-07-22T06:00:09;99782.56;;;20.35;76.15
41515;BME280;27247;48.020;16.720;2023-07-22T06:04:23;99775.22;;;20.48;75.82
41515;BME280;27247;48.020;16.720;2023-07-22T06:08:33;99784.72;;;20.62;75.72
41515;BME280;27247;48.020;16.720;2023-07-22T06:12:43;99786.91;;;20.77;75.04
41515;BME280;27247;48.020;16.720;2023-07-22T06:16:54;99800.13;;;20.85;75.15
41515;BME280;27247;48.020;16.720;2023-07-22T06:21:04;99793.41;;;21.04;75.46
41515;BME280;27247;48.020;16.720;2023-07-22T06:25:15;99804.13;;;21.11;72.95
41515;BME280;27247;48.020;16.720;2023-07-22T06:29:25;99794.44;;;21.31;72.54
41515;BME280;27247;48.020;16.720;2023-07-22T06:33:36;99795.69;;;21.41;72.12
41515;BME280;27247;48.020;16.720;2023-07-22T06:37:46;99803.75;;;21.52;72.02
41515;BME280;27247;48.020;16.720;2023-07-22T06:41:56;99804.63;;;21.75;72.17
41515;BME280;27247;48.020;16.720;2023-07-22T06:46:06;99809.75;;;21.88;70.04
41515;BME280;27247;48.020;16.720;2023-07-22T06:50:17;99807.75;;;22.00;70.87
41515;BME280;27247;48.020;16.720;2023-07-22T06:54:27;99808.75;;;22.11;69.10
41515;BME280;27247;48.020;16.720;2023-07-22T06:58:38;99810.91;;;22.30;68.86
41515;BME280;27247;48.020;16.720;2023-07-22T07:02:48;99816.56;;;22.46;67.76
41515;BME280;27247;48.020;16.720;2023-07-22T07:06:59;99810.72;;;22.59;67.74
41515;BME280;27247;48.020;16.720;2023-07-22T07:11:09;99813.44;;;22.81;65.57
41515;BME280;27247;48.020;16.720;2023-07-22T07:15:19;99804.13;;;22.99;64.95
41515;BME280;27247;48.020;16.720;2023-07-22T07:19:30;99804.22;;;23.09;63.85
41515;BME280;27247;48.020;16.720;2023-07-22T07:23:40;99812.88;;;23.33;63.99
41515;BME280;27247;48.020;16.720;2023-07-22T07:27:51;99814.59;;;23.44;63.11
41515;BME280;27247;48.020;16.720;2023-07-22T07:32:01;99813.97;;;23.64;62.60
41515;BME280;27247;48.020;16.720;2023-07-22T07:36:11;99821.97;;;23.75;59.83
41515;BME280;27247;48.020;16.720;2023-07-22T07:40:22;99828.88;;;23.88;58.68
41515;BME280;27247;48.020;16.720;2023-07-22T07:44:32;99825.72;;;24.01;59.09
41515;BME280;27247;48.020;16.720;2023-07-22T07:48:46;99821.09;;;24.07;58.32
41515;BME280;27247;48.020;16.720;2023-07-22T07:52:57;99830.19;;;24.23;59.71
41515;BME280;27247;48.020;16.720;2023-07-22T07:57:07;99822.13;;;24.43;58.16
41515;BME280;27247;48.020;16.720;2023-07-22T08:01:18;99827.06;;;24.51;57.83
41515;BME280;27247;48.020;16.720;2023-07-22T08:05:28;99832.63;;;24.71;58.01
41515;BME280;27247;48.020;16.720;2023-07-22T08:09:38;99841.75;;;24.97;56.16
41515;BME280;27247;48.020;16.720;2023-07-22T08:13:49;99834.03;;;24.94;57.81
41515;BME280;27247;48.020;16.720;2023-07-22T08:18:00;99832.22;;;25.20;56.48
41515;BME280;27247;48.020;16.720;2023-07-22T08:22:10;99841.81;;;25.53;55.44
41515;BME280;27247;48.020;16.720;2023-07-22T08:26:21;99862.63;;;25.54;54.83
41515;BME280;27247;48.020;16.720;2023-07-22T08:30:31;99868.09;;;25.44;54.86
41515;BME280;27247;48.020;16.720;2023-07-22T08:34:42;99867.19;;;24.98;54.57
41515;BME280;27247;48.020;16.720;2023-07-22T08:38:52;99871.22;;;24.90;56.09
41515;BME280;27247;48.020;16.720;2023-07-22T08:43:04;99877.88;;;24.99;55.39
41515;BME280;27247;48.020;16.720;2023-07-22T08:47:17;99875.13;;;24.99;56.09
41515;BME280;27247;48.020;16.720;2023-07-22T08:51:30;99875.16;;;25.04;55.76
41515;BME280;27247;48.020;16.720;2023-07-22T08:55:42;99885.03;;;25.31;56.11
41515;BME280;27247;48.020;16.720;2023-07-22T08:59:54;99879.88;;;25.50;55.23
41515;BME280;27247;48.020;16.720;2023-07-22T09:04:04;99888.13;;;25.75;55.56
41515;BME280;27247;48.020;16.720;2023-07-22T09:08:14;99883.44;;;26.21;54.82
41515;BME280;27247;48.020;16.720;2023-07-22T09:12:25;99883.69;;;26.30;52.34
41515;BME280;27247;48.020;16.720;2023-07-22T09:16:36;99885.09;;;25.92;53.06
41515;BME280;27247;48.020;16.720;2023-07-22T09:20:46;99884.81;;;25.98;54.23
41515;BME280;27247;48.020;16.720;2023-07-22T09:25:14;99879.88;;;26.11;52.20
41515;BME280;27247;48.020;16.720;2023-07-22T09:29:36;99885.06;;;26.37;51.28
41515;BME280;27247;48.020;16.720;2023-07-22T09:33:46;99892.16;;;26.44;51.76
41515;BME280;27247;48.020;16.720;2023-07-22T09:37:58;99881.72;;;26.51;51.16
41515;BME280;27247;48.020;16.720;2023-07-22T09:42:09;99889.44;;;26.44;50.06
41515;BME280;27247;48.020;16.720;2023-07-22T09:46:19;99881.94;;;26.69;51.31
41515;BME280;27247;48.020;16.720;2023-07-22T09:50:30;99887.94;;;26.77;50.42
41515;BME280;27247;48.020;16.720;2023-07-22T09:54:47;99891.69;;;27.06;50.58
41515;BME280;27247;48.020;16.720;2023-07-22T09:58:58;99885.38;;;25.80;50.54
41515;BME280;27247;48.020;16.720;2023-07-22T10:03:10;99884.16;;;26.62;51.02
41515;BME280;27247;48.020;16.720;2023-07-22T10:07:20;99891.97;;;26.99;48.24
41515;BME280;27247;48.020;16.720;2023-07-22T10:11:31;99879.06;;;27.00;49.55
41515;BME280;27247;48.020;16.720;2023-07-22T10:15:42;99877.63;;;27.57;48.91
41515;BME280;27247;48.020;16.720;2023-07-22T10:19:55;99870.28;;;27.81;48.50
41515;BME280;27247;48.020;16.720;2023-07-22T10:24:06;99857.81;;;27.94;49.33
41515;BME280;27247;48.020;16.720;2023-07-22T10:28:16;99851.66;;;28.36;48.64
41515;BME280;27247;48.020;16.720;2023-07-22T10:32:38;99851.19;;;28.72;48.09
41515;BME280;27247;48.020;16.720;2023-07-22T10:36:49;99855.00;;;29.18;45.49
41515;BME280;27247;48.020;16.720;2023-07-22T10:41:00;99849.72;;;29.22;45.27
41515;BME280;27247;48.020;16.720;2023-07-22T10:45:26;99840.84;;;28.87;43.83
41515;BME280;27247;48.020;16.720;2023-07-22T10:49:46;99832.59;;;29.06;44.47
41515;BME280;27247;48.020;16.720;2023-07-22T10:53:57;99834.69;;;29.33;43.29
41515;BME280;27247;48.020;16.720;2023-07-22T10:58:07;99828.22;;;29.24;44.51
41515;BME280;27247;48.020;16.720;2023-07-22T11:02:29;99813.91;;;28.84;44.64
41515;BME280;27247;48.020;16.720;2023-07-22T11:07:02;99818.00;;;29.06;45.05
41515;BME280;27247;48.020;16.720;2023-07-22T11:11:14;99819.28;;;28.95;43.26
41515;BME280;27247;48.020;16.720;2023-07-22T11:15:29;99808.06;;;28.91;42.04
41515;BME280;27247;48.020;16.720;2023-07-22T11:19:39;99812.13;;;29.31;41.65
41515;BME280;27247;48.020;16.720;2023-07-22T11:23:50;99804.13;;;29.81;43.27
41515;BME280;27247;48.020;16.720;2023-07-22T11:28:00;99796.13;;;30.12;42.83
41515;BME280;27247;48.020;16.720;2023-07-22T11:32:18;99795.81;;;29.53;43.15
41515;BME280;27247;48.020;16.720;2023-07-22T11:36:31;99802.06;;;29.40;43.49
41515;BME280;27247;48.020;16.720;2023-07-22T11:40:42;99791.63;;;29.23;42.89
41515;BME280;27247;48.020;16.720;2023-07-22T11:44:52;99795.44;;;29.41;41.91
41515;BME280;27247;48.020;16.720;2023-07-22T11:49:02;99775.97;;;29.84;39.60
41515;BME280;27247;48.020;16.720;2023-07-22T11:53:13;99785.38;;;29.97;37.48
41515;BME280;27247;48.020;16.720;2023-07-22T11:57:24;99785.00;;;30.44;39.03
41515;BME280;27247;48.020;16.720;2023-07-22T12:01:35;99780.28;;;31.08;39.37
41515;BME280;27247;48.020;16.720;2023-07-22T12:05:45;99776.63;;;31.35;37.64
41515;BME280;27247;48.020;16.720;2023-07-22T12:09:58;99772.13;;;30.67;37.83
41515;BME280;27247;48.020;16.720;2023-07-22T12:14:12;99766.50;;;30.72;38.96
41515;BME280;27247;48.020;16.720;2023-07-22T12:18:25;99757.97;;;31.19;37.62
41515;BME280;27247;48.020;16.720;2023-07-22T12:22:35;99757.09;;;31.32;36.43
41515;BME280;27247;48.020;16.720;2023-07-22T12:26:46;99745.78;;;31.20;37.13
41515;BME280;27247;48.020;16.720;2023-07-22T12:30:57;99734.50;;;31.61;37.24
41515;BME280;27247;48.020;16.720;2023-07-22T12:35:08;99743.13;;;31.90;37.14
41515;BME280;27247;48.020;16.720;2023-07-22T12:39:18;99740.13;;;31.69;38.14
41515;BME280;27247;48.020;16.720;2023-07-22T12:43:29;99741.03;;;31.34;38.46
41515;BME280;27247;48.020;16.720;2023-07-22T12:47:40;99740.09;;;30.80;39.23
41515;BME280;27247;48.020;16.720;2023-07-22T12:51:51;99731.44;;;30.73;39.94
41515;BME280;27247;48.020;16.720;2023-07-22T12:56:01;99729.25;;;31.06;40.29
41515;BME280;27247;48.020;16.720;2023-07-22T13:00:16;99714.66;;;30.33;40.31
41515;BME280;27247;48.020;16.720;2023-07-22T13:04:26;99705.38;;;30.02;40.49
41515;BME280;27247;48.020;16.720;2023-07-22T13:08:37;99710.44;;;29.95;41.11
41515;BME280;27247;48.020;16.720;2023-07-22T13:12:47;99712.59;;;29.57;41.31
41515;BME280;27247;48.020;16.720;2023-07-22T13:16:57;99706.22;;;29.42;40.52
41515;BME280;27247;48.020;16.720;2023-07-22T13:21:08;99708.41;;;29.86;40.28
41515;BME280;27247;48.020;16.720;2023-07-22T13:25:18;99701.94;;;30.60;38.32
41515;BME280;27247;48.020;16.720;2023-07-22T13:29:28;99686.78;;;31.38;36.76
41515;BME280;27247;48.020;16.720;2023-07-22T13:33:39;99684.47;;;31.62;36.91
41515;BME280;27247;48.020;16.720;2023-07-22T13:37:50;99687.03;;;31.98;36.71
41515;BME280;27247;48.020;16.720;2023-07-22T13:42:00;99666.75;;;32.12;36.27
41515;BME280;27247;48.020;16.720;2023-07-22T13:46:10;99665.28;;;32.14;36.19
41515;BME280;27247;48.020;16.720;2023-07-22T13:50:21;99671.75;;;31.53;36.40
41515;BME280;27247;48.020;16.720;2023-07-22T13:54:31;99666.75;;;31.63;37.44
41515;BME280;27247;48.020;16.720;2023-07-22T13:58:42;99660.63;;;31.75;36.34
41515;BME280;27247;48.020;16.720;2023-07-22T14:02:52;99665.22;;;32.36;36.95
41515;BME280;27247;48.020;16.720;2023-07-22T14:07:02;99662.19;;;32.16;35.02
41515;BME280;27247;48.020;16.720;2023-07-22T14:11:13;99662.13;;;31.81;35.15
41515;BME280;27247;48.020;16.720;2023-07-22T14:15:23;99650.66;;;31.65;35.63
41515;BME280;27247;48.020;16.720;2023-07-22T14:19:33;99645.53;;;31.41;35.97
41515;BME280;27247;48.020;16.720;2023-07-22T14:23:43;99656.47;;;31.02;34.84
41515;BME280;27247;48.020;16.720;2023-07-22T14:27:54;99655.25;;;30.86;36.27
41515;BME280;27247;48.020;16.720;2023-07-22T14:32:04;99639.47;;;30.41;36.66
41515;BME280;27247;48.020;16.720;2023-07-22T14:36:15;99648.00;;;30.17;37.18
41515;BME280;27247;48.020;16.720;2023-07-22T14:40:26;99652.69;;;29.62;36.49
41515;BME280;27247;48.020;16.720;2023-07-22T14:44:37;99662.25;;;29.37;36.83
41515;BME280;27247;48.020;16.720;2023-07-22T14:48:47;99656.53;;;29.34;37.51
41515;BME280;27247;48.020;16.720;2023-07-22T14:52:57;99657.13;;;29.17;38.49
41515;BME280;27247;48.020;16.720;2023-07-22T14:57:09;99653.28;;;28.99;38.08
41515;BME280;27247;48.020;16.720;2023-07-22T15:01:21;99641.75;;;28.97;40.66
41515;BME280;27247;48.020;16.720;2023-07-22T15:05:31;99643.19;;;28.76;40.27
41515;BME280;27247;48.020;16.720;2023-07-22T15:09:41;99636.31;;;28.59;39.45
41515;BME280;27247;48.020;16.720;2023-07-22T15:13:52;99625.81;;;28.61;40.13
41515;BME280;27247;48.020;16.720;2023-07-22T15:18:02;99627.66;;;28.66;41.62
41515;BME280;27247;48.020;16.720;2023-07-22T15:22:12;99624.97;;;28.80;42.43
41515;BME280;27247;48.020;16.720;2023-07-22T15:26:23;99630.53;;;28.93;41.48
41515;BME280;27247;48.020;16.720;2023-07-22T15:30:33;99637.78;;;28.71;42.85
41515;BME280;27247;48.020;16.720;2023-07-22T15:34:44;99638.81;;;28.75;43.09
41515;BME280;27247;48.020;16.720;2023-07-22T15:38:54;99627.28;;;28.73;43.38
41515;BME280;27247;48.020;16.720;2023-07-22T15:43:04;99631.84;;;28.64;43.22
41515;BME280;27247;48.020;16.720;2023-07-22T15:47:15;99632.59;;;28.50;43.67
41515;BME280;27247;48.020;16.720;2023-07-22T15:51:25;99641.88;;;28.17;44.13
41515;BME280;27247;48.020;16.720;2023-07-22T15:55:35;99638.19;;;28.26;44.74
41515;BME280;27247;48.020;16.720;2023-07-22T15:59:45;99644.81;;;28.25;46.06
41515;BME280;27247;48.020;16.720;2023-07-22T16:03:56;99640.69;;;26.64;52.13
41515;BME280;27247;48.020;16.720;2023-07-22T16:08:06;99649.88;;;25.85;54.73
41515;BME280;27247;48.020;16.720;2023-07-22T16:12:17;99633.50;;;25.75;55.50
41515;BME280;27247;48.020;16.720;2023-07-22T16:16:27;99623.53;;;25.14;56.88
41515;BME280;27247;48.020;16.720;2023-07-22T16:20:37;99634.47;;;25.20;57.40
41515;BME280;27247;48.020;16.720;2023-07-22T16:24:48;99628.19;;;25.19;58.20
41515;BME280;27247;48.020;16.720;2023-07-22T16:29:01;99628.16;;;25.29;57.93
41515;BME280;27247;48.020;16.720;2023-07-22T16:33:12;99618.56;;;25.32;58.32
41515;BME280;27247;48.020;16.720;2023-07-22T16:37:22;99624.88;;;25.32;58.73
41515;BME280;27247;48.020;16.720;2023-07-22T16:41:32;99630.34;;;25.32;57.42
41515;BME280;27247;48.020;16.720;2023-07-22T16:45:43;99620.50;;;25.31;56.97
41515;BME280;27247;48.020;16.720;2023-07-22T16:49:53;99617.44;;;25.48;58.32
41515;BME280;27247;48.020;16.720;2023-07-22T16:54:05;99633.31;;;25.46;57.00
41515;BME280;27247;48.020;16.720;2023-07-22T16:58:15;99622.09;;;25.37;58.31
41515;BME280;27247;48.020;16.720;2023-07-22T17:02:26;99618.53;;;25.42;57.82
41515;BME280;27247;48.020;16.720;2023-07-22T17:06:37;99633.59;;;25.44;57.82
41515;BME280;27247;48.020;16.720;2023-07-22T17:10:47;99646.72;;;25.42;59.60
41515;BME280;27247;48.020;16.720;2023-07-22T17:14:57;99641.56;;;25.31;59.84
41515;BME280;27247;48.020;16.720;2023-07-22T17:19:08;99650.84;;;25.30;60.39
41515;BME280;27247;48.020;16.720;2023-07-22T17:23:18;99641.88;;;24.99;60.04
41515;BME280;27247;48.020;16.720;2023-07-22T17:27:29;99647.03;;;24.80;60.60
41515;BME280;27247;48.020;16.720;2023-07-22T17:31:39;99656.03;;;24.60;59.71
41515;BME280;27247;48.020;16.720;2023-07-22T17:35:50;99647.28;;;24.38;60.73
41515;BME280;27247;48.020;16.720;2023-07-22T17:40:01;99654.09;;;24.35;60.93
41515;BME280;27247;48.020;16.720;2023-07-22T17:44:12;99659.56;;;24.30;61.42
41515;BME280;27247;48.020;16.720;2023-07-22T17:48:23;99655.38;;;24.07;62.02
41515;BME280;27247;48.020;16.720;2023-07-22T17:52:34;99663.47;;;23.92;62.26
41515;BME280;27247;48.020;16.720;2023-07-22T17:56:44;99671.19;;;24.00;62.20
41515;BME280;27247;48.020;16.720;2023-07-22T18:00:55;99675.72;;;23.84;61.64
41515;BME280;27247;48.020;16.720;2023-07-22T18:05:06;99682.97;;;23.59;62.11
41515;BME280;27247;48.020;16.720;2023-07-22T18:09:17;99681.63;;;23.61;61.75
41515;BME280;27247;48.020;16.720;2023-07-22T18:13:27;99675.06;;;23.57;61.46
41515;BME280;27247;48.020;16.720;2023-07-22T18:17:38;99678.50;;;23.47;61.75
41515;BME280;27247;48.020;16.720;2023-07-22T18:21:49;99687.50;;;23.43;61.93
41515;BME280;27247;48.020;16.720;2023-07-22T18:26:01;99686.88;;;23.31;61.49
41515;BME280;27247;48.020;16.720;2023-07-22T18:30:11;99688.28;;;23.38;61.35
41515;BME280;27247;48.020;16.720;2023-07-22T18:34:22;99689.31;;;23.32;60.48
41515;BME280;27247;48.020;16.720;2023-07-22T18:38:33;99697.97;;;23.56;61.09
41515;BME280;27247;48.020;16.720;2023-07-22T18:42:44;99705.13;;;23.67;60.67
41515;BME280;27247;48.020;16.720;2023-07-22T18:46:55;99707.59;;;23.74;61.05
41515;BME280;27247;48.020;16.720;2023-07-22T18:51:06;99704.03;;;23.68;62.01
41515;BME280;27247;48.020;16.720;2023-07-22T18:55:16;99706.47;;;23.65;62.34
41515;BME280;27247;48.020;16.720;2023-07-22T18:59:27;99715.44;;;23.60;62.97
41515;BME280;27247;48.020;16.720;2023-07-22T19:03:37;99722.94;;;23.43;63.41
41515;BME280;27247;48.020;16.720;2023-07-22T19:07:48;99720.59;;;23.19;63.39
41515;BME280;27247;48.020;16.720;2023-07-22T19:12:00;99723.88;;;23.21;64.17
41515;BME280;27247;48.020;16.720;2023-07-22T19:16:11;99726.13;;;22.71;64.69
41515;BME280;27247;48.020;16.720;2023-07-22T19:20:21;99734.19;;;22.12;65.73
41515;BME280;27247;48.020;16.720;2023-07-22T19:24:34;99741.81;;;21.93;66.16
41515;BME280;27247;48.020;16.720;2023-07-22T19:28:45;99744.41;;;21.66;66.96
41515;BME280;27247;48.020;16.720;2023-07-22T19:32:56;99744.34;;;21.61;67.09
41515;BME280;27247;48.020;16.720;2023-07-22T19:37:06;99753.94;;;21.85;67.67
41515;BME280;27247;48.020;16.720;2023-07-22T19:41:17;99754.66;;;21.97;67.21
41515;BME280;27247;48.020;16.720;2023-07-22T19:45:28;99751.84;;;22.09;67.14
41515;BME280;27247;48.020;16.720;2023-07-22T19:49:38;99750.31;;;22.18;66.77
41515;BME280;27247;48.020;16.720;2023-07-22T19:53:52;99752.16;;;22.13;66.77
41515;BME280;27247;48.020;16.720;2023-07-22T19:58:02;99764.63;;;22.09;67.12
41515;BME280;27247;48.020;16.720;2023-07-22T20:02:13;99773.81;;;21.86;70.61
41515;BME280;27247;48.020;16.720;2023-07-22T20:06:24;99770.94;;;21.76;71.02
41515;BME280;27247;48.020;16.720;2023-07-22T20:10:35;99779.97;;;21.81;68.45
41515;BME280;27247;48.020;16.720;2023-07-22T20:14:45;99781.91;;;21.64;68.13
41515;BME280;27247;48.020;16.720;2023-07-22T20:18:56;99784.47;;;21.37;68.23
41515;BME280;27247;48.020;16.720;2023-07-22T20:23:07;99783.38;;;21.21;68.67
41515;BME280;27247;48.020;16.720;2023-07-22T20:27:17;99783.53;;;20.98;69.85
41515;BME280;27247;48.020;16.720;2023-07-22T20:31:28;99780.88;;;20.86;70.28
41515;BME280;27247;48.020;16.720;2023-07-22T20:35:39;99786.72;;;20.66;70.84
41515;BME280;27247;48.020;16.720;2023-07-22T20:39:50;99790.00;;;20.68;70.67
41515;BME280;27247;48.020;16.720;2023-07-22T20:44:01;99788.56;;;20.49;73.24
41515;BME280;27247;48.020;16.720;2023-07-22T20:48:11;99785.97;;;20.43;74.11
41515;BME280;27247;48.020;16.720;2023-07-22T20:52:22;99797.66;;;20.31;75.08
41515;BME280;27247;48.020;16.720;2023-07-22T20:56:33;99796.19;;;20.12;75.56
41515;BME280;27247;48.020;16.720;2023-07-22T21:00:44;99791.00;;;19.99;76.25
41515;BME280;27247;48.020;16.720;2023-07-22T21:04:54;99805.88;;;19.96;75.52
41515;BME280;27247;48.020;16.720;2023-07-22T21:09:05;99806.22;;;19.76;75.64
41515;BME280;27247;48.020;16.720;2023-07-22T21:13:16;99805.75;;;19.91;74.38
41515;BME280;27247;48.020;16.720;2023-07-22T21:17:26;99812.47;;;19.89;74.02
41515;BME280;27247;48.020;16.720;2023-07-22T21:21:37;99800.34;;;19.91;74.00
41515;BME280;27247;48.020;16.720;2023-07-22T21:25:54;99806.34;;;19.82;74.00
41515;BME280;27247;48.020;16.720;2023-07-22T21:30:05;99806.31;;;19.70;75.10
41515;BME280;27247;48.020;16.720;2023-07-22T21:34:15;99814.28;;;19.41;76.12
41515;BME280;27247;48.020;16.720;2023-07-22T21:38:25;99814.72;;;19.15;77.78
41515;BME280;27247;48.020;16.720;2023-07-22T21:42:37;99809.72;;;19.00;78.94
41515;BME280;27247;48.020;16.720;2023-07-22T21:46:47;99815.16;;;19.00;79.27
41515;BME280;27247;48.020;16.720;2023-07-22T21:50:58;99809.63;;;19.07;79.11